Time;durP1;ratioP1;P1;durP2;ratioP2;P2;SDS_P1;SDS_P2;PMS_P1;PMS_P2;Temp;Humidity;BMP_temperature;BMP_pressure;BME280_temperature;BME280_humidity;BME280_pressure;Samples;Min_cycle;Max_cycle;Signal;HPM_P1;HPM_P2
2022/08/31 00:06:09;;;;;;;0.10;0.10;;;;;;;19.26;68.48;99980.25;6296052;28;20048;-71
2022/08/31 00:09:10;;;;;;;1.30;0.97;;;;;;;19.16;68.78;99982.97;6282504;28;20152;-71
2022/08/31 00:12:11;;;;;;;0.10;0.10;;;;;;;19.07;69.55;99989.16;6316137;28;20049;-71
2022/08/31 00:15:16;;;;;;;0.15;0.15;;;;;;;19.05;70.56;99983.19;6299152;28;20506;-71
2022/08/31 00:18:20;;;;;;;0.38;0.20;;;;;;;19.05;70.24;99984.03;6299050;28;20052;-71
2022/08/31 00:21:25;;;;;;;0.13;0.13;;;;;;;19.06;70.41;99982.19;6332897;28;20102;-72
2022/08/31 00:24:28;;;;;;;0.13;0.13;;;;;;;19.04;69.99;99973.59;6300106;28;20538;-71
2022/08/31 00:27:31;;;;;;;0.57;0.38;;;;;;;19.08;70.18;99977.59;6300219;28;20457;-72
2022/08/31 00:30:33;;;;;;;0.70;0.30;;;;;;;19.16;70.20;99979.50;6298626;28;20044;-72
2022/08/31 00:33:35;;;;;;;0.07;0.07;;;;;;;19.09;71.63;99979.28;6298647;28;20052;-72
2022/08/31 00:36:36;;;;;;;0.55;0.47;;;;;;;19.04;71.85;99973.59;6298613;28;20040;-72
2022/08/31 00:39:38;;;;;;;0.40;0.40;;;;;;;19.06;72.69;99972.44;6299845;28;20040;-72
2022/08/31 00:42:39;;;;;;;0.30;0.15;;;;;;;18.95;72.97;99972.69;6299673;28;20040;-71
2022/08/31 00:45:40;;;;;;;0.17;0.17;;;;;;;19.00;73.16;99969.59;6298353;28;20098;-72
2022/08/31 00:48:44;;;;;;;0.50;0.20;;;;;;;18.95;72.49;99983.25;6298437;28;20040;-72
2022/08/31 00:52:03;;;;;;;0.20;0.20;;;;;;;18.93;73.97;99991.31;6315256;28;20052;-72
2022/08/31 00:55:35;;;;;;;0.10;0.05;;;;;;;18.94;73.17;99986.88;6298138;28;20178;-71
2022/08/31 00:58:36;;;;;;;0.05;0.05;;;;;;;18.91;72.84;99988.00;6290883;28;20057;-72
2022/08/31 01:01:37;;;;;;;0.43;0.30;;;;;;;18.91;74.12;99995.09;6297849;28;20075;-72
2022/08/31 01:04:38;;;;;;;0.10;0.10;;;;;;;18.86;74.33;99994.72;6299202;28;20094;-71
2022/08/31 01:07:40;;;;;;;0.10;0.10;;;;;;;18.84;74.06;99986.94;6297967;28;20134;-71
2022/08/31 01:10:43;;;;;;;2.58;0.22;;;;;;;18.75;74.79;99985.16;6297896;28;20041;-72
2022/08/31 01:13:44;;;;;;;0.10;0.10;;;;;;;18.71;75.98;99987.25;6297747;28;20049;-71
2022/08/31 01:16:52;;;;;;;0.20;0.20;;;;;;;18.65;75.90;99982.56;6297534;28;20438;-71
2022/08/31 01:19:56;;;;;;;0.30;0.30;;;;;;;18.46;77.54;99982.66;6298733;28;20044;-71
2022/08/31 01:23:22;;;;;;;4.07;0.52;;;;;;;18.48;78.30;99978.06;6297564;28;20397;-71
2022/08/31 01:26:26;;;;;;;0.10;0.10;;;;;;;18.49;78.14;99980.56;6299047;28;20373;-71
2022/08/31 01:29:27;;;;;;;0.20;0.20;;;;;;;18.40;78.17;99973.50;6297564;28;20362;-72
2022/08/31 01:32:28;;;;;;;0.00;0.00;;;;;;;18.27;79.53;99971.19;6297539;28;20059;-71
2022/08/31 01:35:29;;;;;;;0.47;0.35;;;;;;;18.29;79.27;99973.72;6298479;28;20053;-71
2022/08/31 01:38:32;;;;;;;0.00;0.00;;;;;;;18.28;79.76;99969.38;6299041;28;20495;-72
2022/08/31 01:41:40;;;;;;;0.32;0.25;;;;;;;18.31;80.81;99961.19;6298408;28;20048;-71
2022/08/31 01:44:41;;;;;;;0.80;0.45;;;;;;;18.24;80.36;99966.22;6298200;28;20094;-71
2022/08/31 01:47:41;;;;;;;0.17;0.17;;;;;;;18.20;80.70;99961.34;6297050;28;20435;-72
2022/08/31 01:50:43;;;;;;;0.00;0.00;;;;;;;18.26;81.27;99963.41;6280759;28;20092;-71
2022/08/31 01:53:45;;;;;;;;;;;;;;;18.11;82.15;99953.31;6297300;28;20397;-71
2022/08/31 01:56:47;;;;;;;1.45;0.45;;;;;;;18.08;82.21;99968.66;6298039;28;20399;-72
2022/08/31 01:59:48;;;;;;;0.20;0.20;;;;;;;18.06;82.25;99963.50;6296717;28;20417;-72
2022/08/31 02:02:53;;;;;;;0.93;0.40;;;;;;;18.06;82.81;99965.31;6297988;28;20123;-72
2022/08/31 02:05:54;;;;;;;0.13;0.13;;;;;;;18.04;82.70;99972.56;6296522;28;20048;-72
2022/08/31 02:08:55;;;;;;;0.20;0.20;;;;;;;17.98;83.31;99967.84;6296589;28;20047;-73
2022/08/31 02:11:56;;;;;;;0.20;0.10;;;;;;;17.83;85.10;99973.56;6297586;28;20633;-73
2022/08/31 02:14:59;;;;;;;1.00;0.70;;;;;;;17.98;84.94;99970.47;6296344;28;20161;-72
2022/08/31 02:18:00;;;;;;;0.20;0.20;;;;;;;17.83;84.67;99973.56;6296267;28;20067;-73
2022/08/31 02:21:02;;;;;;;1.77;0.85;;;;;;;17.82;85.30;99976.31;6296040;28;20481;-71
2022/08/31 02:24:04;;;;;;;0.20;0.20;;;;;;;17.81;86.24;99974.63;6295786;28;20416;-71
2022/08/31 02:27:05;;;;;;;0.30;0.30;;;;;;;17.83;85.53;99976.22;6297260;28;20047;-71
2022/08/31 02:30:10;;;;;;;0.35;0.35;;;;;;;17.78;86.78;99978.41;6278507;28;20052;-71
2022/08/31 02:33:11;;;;;;;0.52;0.43;;;;;;;17.76;86.91;99984.81;6296807;28;20055;-72
2022/08/31 02:36:11;;;;;;;0.20;0.20;;;;;;;17.78;86.30;99980.22;6295873;28;20048;-71
2022/08/31 02:39:13;;;;;;;1.63;0.77;;;;;;;17.75;87.13;99980.47;6296920;28;20048;-72
2022/08/31 02:42:13;;;;;;;0.00;0.00;;;;;;;17.57;87.79;99975.94;6296879;28;20040;-71
2022/08/31 02:45:19;;;;;;;0.57;0.52;;;;;;;17.62;88.58;99981.59;6296775;28;20400;-72
2022/08/31 02:48:20;;;;;;;0.93;0.52;;;;;;;17.62;87.59;99978.97;6296680;28;20499;-71
2022/08/31 02:51:21;;;;;;;0.95;0.28;;;;;;;17.60;90.64;99970.38;6296527;28;20048;-71
2022/08/31 02:54:22;;;;;;;0.35;0.30;;;;;;;17.62;89.69;99972.88;6295306;28;20048;-73
2022/08/31 02:57:25;;;;;;;0.13;0.13;;;;;;;17.55;90.19;99974.41;6296589;28;20037;-72
2022/08/31 03:00:26;;;;;;;0.10;0.10;;;;;;;17.49;91.26;99970.53;6295156;28;20492;-72
2022/08/31 03:03:27;;;;;;;0.60;0.52;;;;;;;17.37;90.60;99980.38;6296333;28;20162;-71
2022/08/31 03:06:30;;;;;;;0.57;0.50;;;;;;;17.29;91.88;99975.78;6296345;28;20061;-72
2022/08/31 03:09:31;;;;;;;0.40;0.40;;;;;;;17.39;91.30;99977.63;6328898;28;20115;-71
2022/08/31 03:12:33;;;;;;;0.13;0.13;;;;;;;17.39;91.13;99969.69;6296285;28;20044;-72
2022/08/31 03:15:34;;;;;;;0.80;0.60;;;;;;;17.36;91.05;99984.00;6328704;28;20052;-71
2022/08/31 03:18:34;;;;;;;0.43;0.28;;;;;;;17.29;92.11;99986.34;6295969;28;20040;-72
2022/08/31 03:21:38;;;;;;;0.32;0.32;;;;;;;17.29;92.07;99985.53;6296153;28;20078;-72
2022/08/31 03:24:40;;;;;;;0.10;0.10;;;;;;;17.22;94.20;99987.06;6296051;28;20040;-72
2022/08/31 03:27:40;;;;;;;2.17;1.02;;;;;;;17.05;95.71;99986.75;6278197;28;20106;-71
2022/08/31 03:30:41;;;;;;;0.35;0.30;;;;;;;17.12;95.76;99976.50;6294774;28;20072;-72
2022/08/31 03:33:45;;;;;;;0.10;0.10;;;;;;;17.05;95.93;99985.94;6295646;28;20056;-71
2022/08/31 03:36:46;;;;;;;0.30;0.20;;;;;;;16.98;96.50;99985.63;6295900;28;20075;-71
2022/08/31 03:39:47;;;;;;;0.10;0.10;;;;;;;16.99;97.18;99994.38;6295772;28;20040;-71
2022/08/31 03:42:50;;;;;;;0.47;0.10;;;;;;;17.01;97.01;99993.28;6294489;28;20506;-71
2022/08/31 03:45:51;;;;;;;0.38;0.38;;;;;;;16.94;98.96;99984.22;6295691;28;20052;-72
2022/08/31 03:48:53;;;;;;;0.52;0.40;;;;;;;16.96;98.34;99990.19;6295772;28;20043;-72
2022/08/31 03:51:58;;;;;;;0.20;0.20;;;;;;;16.98;99.08;99992.72;6294527;28;20504;-71
2022/08/31 03:54:59;;;;;;;0.45;0.32;;;;;;;16.97;97.34;99991.88;6294335;28;20052;-71
2022/08/31 03:58:03;;;;;;;0.35;0.22;;;;;;;16.91;99.94;99987.97;6294408;28;20040;-71
2022/08/31 04:01:04;;;;;;;0.20;0.20;;;;;;;16.87;100.00;99988.41;6295601;28;20073;-72
2022/08/31 04:04:08;;;;;;;0.20;0.20;;;;;;;16.91;100.00;99993.25;6295386;28;20127;-72
2022/08/31 04:07:08;;;;;;;0.13;0.13;;;;;;;16.89;99.51;99997.00;6295444;28;20060;-73
2022/08/31 04:10:13;;;;;;;0.20;0.20;;;;;;;16.92;100.00;100001.97;6313548;28;20055;-71
2022/08/31 04:13:14;;;;;;;0.55;0.45;;;;;;;16.66;100.00;99999.81;6312880;28;20056;-71
2022/08/31 04:16:18;;;;;;;0.30;0.30;;;;;;;16.75;100.00;100011.34;6320444;28;20053;-72
2022/08/31 04:19:19;;;;;;;0.43;0.43;;;;;;;16.72;100.00;100009.00;6319172;28;20051;-71
2022/08/31 04:22:19;;;;;;;0.22;0.22;;;;;;;16.71;100.00;100005.50;6319365;28;20068;-72
2022/08/31 04:25:20;;;;;;;0.22;0.22;;;;;;;16.67;100.00;99998.84;6318937;28;20110;-71
2022/08/31 04:28:21;;;;;;;0.63;0.32;;;;;;;16.72;100.00;100007.19;6319068;28;20047;-72
2022/08/31 04:31:24;;;;;;;1.15;0.40;;;;;;;16.84;100.00;100004.47;6320252;28;20040;-71
2022/08/31 04:34:30;;;;;;;0.38;0.38;;;;;;;16.92;100.00;100004.63;6321037;28;20088;-72
2022/08/31 04:37:31;;;;;;;0.35;0.32;;;;;;;17.02;100.00;100005.47;6308438;28;20047;-71
2022/08/31 04:40:31;;;;;;;0.05;0.05;;;;;;;17.14;100.00;100011.47;6314614;28;20036;-72
2022/08/31 04:43:32;;;;;;;0.20;0.10;;;;;;;17.20;98.17;100005.66;6294953;28;20463;-71
2022/08/31 04:46:35;;;;;;;0.20;0.20;;;;;;;17.30;98.08;100005.66;6295000;28;20045;-71
2022/08/31 04:49:36;;;;;;;0.10;0.10;;;;;;;17.41;95.85;100007.31;6313951;28;20043;-72
2022/08/31 04:52:37;;;;;;;0.35;0.35;;;;;;;17.50;94.71;100006.47;6322689;28;20044;-71
2022/08/31 04:55:42;;;;;;;0.30;0.30;;;;;;;17.56;94.34;99999.81;6323432;28;20040;-72
2022/08/31 04:58:47;;;;;;;0.30;0.30;;;;;;;17.83;93.70;100004.38;6323502;28;20098;-71
2022/08/31 05:01:48;;;;;;;0.40;0.40;;;;;;;17.89;90.32;100009.09;6319538;28;20074;-73
2022/08/31 05:04:48;;;;;;;0.63;0.47;;;;;;;18.00;89.86;100010.78;6299022;28;20044;-72
2022/08/31 05:07:49;;;;;;;0.28;0.28;;;;;;;18.15;87.91;100011.97;6297980;28;20518;-71
2022/08/31 05:10:50;;;;;;;0.38;0.38;;;;;;;18.29;86.51;100000.94;6299766;28;20461;-72
2022/08/31 05:13:52;;;;;;;0.43;0.22;;;;;;;18.43;86.44;100010.22;6298437;28;20508;-72
2022/08/31 05:16:53;;;;;;;;;;;;;;;18.47;87.12;100011.59;6300417;28;20079;-72
2022/08/31 05:19:54;;;;;;;0.22;0.20;;;;;;;18.49;84.67;100011.41;6300006;28;19920;-72
2022/08/31 05:22:55;;;;;;;0.57;0.50;;;;;;;18.50;83.66;100010.44;6297381;28;20098;-72
2022/08/31 05:25:55;;;;;;;0.50;0.45;;;;;;;18.56;83.63;100009.03;6295043;28;20052;-72
2022/08/31 05:28:58;;;;;;;0.38;0.38;;;;;;;18.56;83.21;100012.50;6296461;28;20119;-72
2022/08/31 05:31:59;;;;;;;0.10;0.10;;;;;;;18.70;83.14;100006.75;6296205;28;20045;-72
2022/08/31 05:35:00;;;;;;;0.25;0.10;;;;;;;18.63;82.31;100010.09;6329785;28;20056;-71
2022/08/31 05:38:00;;;;;;;0.98;0.32;;;;;;;18.64;83.26;100017.91;6297492;28;20041;-71
2022/08/31 05:41:04;;;;;;;0.22;0.22;;;;;;;18.80;81.88;100014.66;6298094;28;20047;-71
2022/08/31 05:44:06;;;;;;;0.35;0.30;;;;;;;18.88;80.11;100021.81;6297880;28;20044;-72
2022/08/31 05:47:07;;;;;;;0.85;0.45;;;;;;;19.08;81.13;100028.66;6298120;28;20045;-71
2022/08/31 05:50:09;;;;;;;0.98;0.30;;;;;;;19.23;79.73;100038.72;6296879;28;20089;-72
2022/08/31 05:53:09;;;;;;;3.10;0.73;;;;;;;19.19;78.96;100032.94;6297932;28;20412;-71
2022/08/31 05:56:13;;;;;;;0.55;0.55;;;;;;;19.36;77.96;100035.72;6297905;28;20075;-71
2022/08/31 05:59:14;;;;;;;0.10;0.10;;;;;;;19.55;78.01;100047.97;6296457;28;20052;-72
2022/08/31 06:02:15;;;;;;;0.23;0.20;;;;;;;19.52;77.62;100047.28;6296384;28;20037;-71
2022/08/31 06:05:16;;;;;;;0.38;0.30;;;;;;;19.67;77.39;100042.28;6295406;28;20462;-71
2022/08/31 06:08:18;;;;;;;0.15;0.15;;;;;;;19.69;76.15;100047.44;6297646;28;20090;-71
2022/08/31 06:11:23;;;;;;;;;;;;;;;19.77;75.52;100046.69;6297963;28;20040;-72
2022/08/31 06:14:24;;;;;;;0.32;0.30;;;;;;;19.85;75.68;100036.16;6297339;28;20326;-72
2022/08/31 06:17:25;;;;;;;0.10;0.10;;;;;;;19.89;75.96;100033.06;6313032;28;20149;-72
2022/08/31 06:20:28;;;;;;;0.10;0.10;;;;;;;20.05;74.83;100036.81;6297274;28;20051;-71
2022/08/31 06:23:29;;;;;;;0.30;0.30;;;;;;;20.12;74.10;100043.97;6297165;28;20120;-71
2022/08/31 06:26:32;;;;;;;0.37;0.33;;;;;;;20.14;74.07;100041.19;6279206;28;20408;-72
2022/08/31 06:29:33;;;;;;;0.28;0.22;;;;;;;20.34;74.31;100036.47;6297090;28;20048;-72
2022/08/31 06:32:34;;;;;;;0.47;0.15;;;;;;;20.46;72.47;100035.22;6295714;28;20058;-71
2022/08/31 06:35:39;;;;;;;0.10;0.10;;;;;;;20.70;76.21;100046.97;6295315;28;20183;-72
2022/08/31 06:38:42;;;;;;;0.25;0.25;;;;;;;20.78;71.68;100047.00;6296807;28;20124;-72
2022/08/31 06:41:43;;;;;;;0.20;0.20;;;;;;;20.91;72.05;100039.41;6329271;28;20053;-72
2022/08/31 06:44:48;;;;;;;0.57;0.47;;;;;;;21.01;68.31;100039.28;6278847;28;20428;-72
2022/08/31 06:47:49;;;;;;;0.43;0.25;;;;;;;21.18;68.49;100041.97;6329260;28;20048;-71
2022/08/31 06:50:57;;;;;;;0.33;0.33;;;;;;;21.29;66.74;100044.31;6312328;28;20570;-72
2022/08/31 06:54:02;;;;;;;1.10;0.35;;;;;;;21.40;66.57;100041.34;6295066;28;20134;-72
2022/08/31 06:57:04;;;;;;;0.30;0.25;;;;;;;21.61;65.64;100043.56;6296387;28;20105;-72
2022/08/31 07:00:06;;;;;;;0.45;0.45;;;;;;;21.72;63.47;100043.25;6295224;28;20049;-73
2022/08/31 07:03:22;;;;;;;0.63;0.60;;;;;;;21.83;63.12;100044.72;6296248;28;20051;-72
2022/08/31 07:06:27;;;;;;;0.08;0.08;;;;;;;22.06;63.16;100049.34;6328641;28;20048;-71
2022/08/31 07:09:28;;;;;;;0.13;0.13;;;;;;;22.17;61.21;100048.16;6328723;28;20044;-72
2022/08/31 07:12:29;;;;;;;0.30;0.30;;;;;;;22.37;61.73;100052.16;6296013;28;20472;-72
2022/08/31 07:15:30;;;;;;;0.40;0.40;;;;;;;22.41;60.53;100048.16;6295665;28;20044;-72
2022/08/31 07:18:31;;;;;;;0.17;0.17;;;;;;;22.62;59.33;100050.22;6294586;28;20060;-72
2022/08/31 07:21:39;;;;;;;0.50;0.37;;;;;;;22.69;59.17;100035.25;6294957;28;20037;-72
2022/08/31 07:24:40;;;;;;;0.10;0.10;;;;;;;22.76;57.97;100050.53;6311268;28;20045;-72
2022/08/31 07:27:41;;;;;;;0.40;0.40;;;;;;;22.78;57.38;100033.38;6294552;28;20032;-72
2022/08/31 07:30:43;;;;;;;0.10;0.10;;;;;;;23.01;56.65;100040.59;6294320;28;20497;-72
2022/08/31 07:33:44;;;;;;;0.40;0.40;;;;;;;23.18;57.04;100047.50;6295460;28;20420;-72
2022/08/31 07:43:25;;;;;;;1.17;0.50;;;;;;;23.39;55.91;100028.25;6295439;28;20048;-72
2022/08/31 07:46:28;;;;;;;2.13;0.43;;;;;;;23.77;55.06;100027.47;6295359;28;20404;-72
2022/08/31 07:49:29;;;;;;;0.73;0.40;;;;;;;23.92;56.03;100037.13;6295448;28;20101;-72
2022/08/31 07:52:31;;;;;;;1.30;0.80;;;;;;;24.04;54.46;100034.84;6295424;28;20045;-72
2022/08/31 07:55:34;;;;;;;0.10;0.10;;;;;;;24.01;54.71;100034.38;6295293;28;20094;-72
2022/08/31 07:58:39;;;;;;;0.45;0.35;;;;;;;24.30;54.75;100036.28;6295262;28;20492;-72
2022/08/31 08:01:42;;;;;;;0.60;0.52;;;;;;;24.11;53.08;100033.13;6295273;28;20041;-72
2022/08/31 08:04:43;;;;;;;0.55;0.30;;;;;;;24.16;53.18;100037.91;6293899;28;20064;-73
2022/08/31 08:07:43;;;;;;;0.17;0.17;;;;;;;24.66;53.53;100033.69;6295206;28;20123;-72
2022/08/31 08:10:46;;;;;;;2.43;0.53;;;;;;;24.90;51.32;100040.56;6294105;28;20498;-72
2022/08/31 08:13:48;;;;;;;0.57;0.52;;;;;;;25.04;51.29;100038.03;6295047;28;20043;-73
2022/08/31 08:16:48;;;;;;;0.30;0.30;;;;;;;25.03;50.65;100034.53;6293771;28;20068;-72
2022/08/31 08:19:52;;;;;;;1.03;0.20;;;;;;;25.05;50.38;100029.84;6293892;28;20094;-73
2022/08/31 08:22:52;;;;;;;0.52;0.50;;;;;;;25.03;49.28;100033.72;6293722;28;20047;-72
2022/08/31 08:25:54;;;;;;;0.50;0.30;;;;;;;25.03;50.31;100031.88;6295010;28;20045;-73
2022/08/31 08:28:55;;;;;;;0.20;0.20;;;;;;;24.94;51.05;100035.69;6299902;28;20289;-72
2022/08/31 08:31:58;;;;;;;0.80;0.63;;;;;;;25.06;49.78;100034.19;6298653;28;20174;-72
2022/08/31 08:34:59;;;;;;;0.30;0.30;;;;;;;25.14;50.53;100042.09;6298376;28;20067;-72
2022/08/31 08:38:01;;;;;;;0.53;0.40;;;;;;;25.13;50.19;100034.25;6299634;28;20040;-72
2022/08/31 08:41:06;;;;;;;0.20;0.20;;;;;;;25.39;49.35;100040.91;6299577;28;20415;-73
2022/08/31 08:44:10;;;;;;;0.43;0.43;;;;;;;25.90;47.35;100040.75;6298141;28;20139;-73
2022/08/31 08:47:19;;;;;;;2.72;0.47;;;;;;;26.08;45.03;100032.25;6299433;28;20082;-72
2022/08/31 08:50:22;;;;;;;0.38;0.38;;;;;;;26.20;44.08;100040.56;6297935;28;20048;-73
2022/08/31 08:53:27;;;;;;;0.30;0.20;;;;;;;26.40;45.38;100030.81;6281551;28;20079;-72
2022/08/31 08:56:28;;;;;;;0.28;0.28;;;;;;;26.68;46.05;100038.78;6299113;28;20408;-73
2022/08/31 08:59:29;;;;;;;1.00;0.50;;;;;;;26.53;44.67;100022.03;6299240;28;20043;-73
2022/08/31 09:02:39;;;;;;;0.17;0.17;;;;;;;26.82;42.25;100018.25;6299114;28;20044;-73
2022/08/31 09:05:45;;;;;;;1.98;0.68;;;;;;;26.81;40.67;100015.78;6297825;28;20631;-72
2022/08/31 09:09:10;;;;;;;0.13;0.13;;;;;;;26.96;40.50;100019.13;6297785;28;20503;-73
2022/08/31 09:12:24;;;;;;;0.30;0.30;;;;;;;26.94;41.43;100021.19;6297866;28;20086;-72
2022/08/31 09:16:03;;;;;;;0.60;0.30;;;;;;;27.03;40.55;100013.78;6297486;28;20040;-72
2022/08/31 09:19:09;;;;;;;0.77;0.30;;;;;;;27.39;40.45;100018.03;6297393;28;20112;-73
2022/08/31 09:22:10;;;;;;;0.40;0.38;;;;;;;27.63;39.91;100013.91;6298742;28;20390;-73
2022/08/31 09:25:15;;;;;;;0.03;0.03;;;;;;;27.76;38.92;100005.88;6298854;28;20087;-73
2022/08/31 09:28:15;;;;;;;0.15;0.15;;;;;;;27.84;37.89;100002.97;6314116;28;20048;-72
2022/08/31 09:31:33;;;;;;;0.50;0.30;;;;;;;27.62;40.07;99993.50;6297373;28;20102;-72
2022/08/31 09:34:39;;;;;;;0.17;0.17;;;;;;;27.46;39.31;99994.72;6297116;28;20135;-72
2022/08/31 09:37:44;;;;;;;0.30;0.30;;;;;;;27.64;38.53;99994.94;6296857;28;20037;-72
2022/08/31 09:40:48;;;;;;;0.20;0.20;;;;;;;27.89;38.94;99995.16;6297038;28;20110;-72
2022/08/31 09:43:49;;;;;;;0.17;0.17;;;;;;;27.85;37.12;99996.56;6280245;28;20049;-72
2022/08/31 09:46:53;;;;;;;0.25;0.22;;;;;;;28.11;37.70;99984.19;6296770;28;20110;-72
2022/08/31 09:49:56;;;;;;;0.30;0.30;;;;;;;27.90;37.27;99995.97;6296839;28;20047;-73
2022/08/31 09:56:53;;;;;;;0.20;0.20;;;;;;;28.19;39.10;99980.44;6296540;28;20394;-72
2022/08/31 09:59:54;;;;;;;0.55;0.22;;;;;;;28.37;38.39;99977.09;6297873;28;20075;-73
2022/08/31 10:03:02;;;;;;;0.32;0.32;;;;;;;28.39;36.93;99973.16;6297692;28;20065;-72
2022/08/31 10:06:03;;;;;;;0.43;0.40;;;;;;;28.55;38.31;99974.56;6297569;28;20045;-72
2022/08/31 10:09:32;;;;;;;0.77;0.60;;;;;;;28.29;35.96;99968.25;6296198;28;20436;-72
2022/08/31 10:12:35;;;;;;;0.77;0.57;;;;;;;28.65;36.66;99966.06;6296007;28;20049;-72
2022/08/31 10:15:51;;;;;;;0.22;0.20;;;;;;;28.89;35.54;99968.00;6296209;28;20045;-72
2022/08/31 10:19:04;;;;;;;0.30;0.28;;;;;;;28.92;34.55;99958.69;6295969;28;20045;-72
2022/08/31 10:22:27;;;;;;;0.20;0.20;;;;;;;28.75;34.69;99961.06;6296085;28;20511;-72
2022/08/31 10:25:37;;;;;;;0.30;0.22;;;;;;;28.95;34.86;99966.28;6295896;28;20044;-72
2022/08/31 10:28:47;;;;;;;0.32;0.20;;;;;;;29.26;34.34;99960.13;6297032;28;20060;-72
2022/08/31 10:31:53;;;;;;;0.70;0.50;;;;;;;29.11;37.95;99941.63;6295914;28;20036;-72
2022/08/31 10:35:03;;;;;;;0.47;0.43;;;;;;;29.24;33.87;99950.63;6329258;28;20052;-72
2022/08/31 10:38:17;;;;;;;0.22;0.22;;;;;;;29.27;33.62;99942.97;6295583;28;20055;-72
2022/08/31 10:41:27;;;;;;;0.40;0.40;;;;;;;29.41;35.16;99945.56;6296860;28;20036;-72
2022/08/31 10:44:56;;;;;;;0.50;0.43;;;;;;;29.31;34.27;99936.09;6296650;28;20477;-72
2022/08/31 10:48:02;;;;;;;0.73;0.30;;;;;;;29.67;36.78;99929.19;6312292;28;20101;-72
2022/08/31 10:51:33;;;;;;;0.17;0.17;;;;;;;29.87;33.24;99922.78;6295883;28;20048;-72
2022/08/31 10:54:53;;;;;;;0.22;0.20;;;;;;;29.90;33.59;99919.66;6329005;28;20081;-72
2022/08/31 10:58:06;;;;;;;0.40;0.38;;;;;;;29.86;32.71;99916.59;6295195;28;20119;-72
2022/08/31 11:01:25;;;;;;;0.13;0.13;;;;;;;29.86;34.36;99913.09;6296266;28;20044;-72
2022/08/31 11:04:38;;;;;;;0.35;0.30;;;;;;;29.86;33.86;99911.22;6294952;28;20040;-72
2022/08/31 11:07:49;;;;;;;0.95;0.30;;;;;;;29.52;34.32;99916.06;6295985;28;20075;-72
2022/08/31 11:10:54;;;;;;;0.22;0.22;;;;;;;29.24;34.15;99913.84;6296123;28;20051;-72
2022/08/31 11:14:13;;;;;;;0.38;0.35;;;;;;;29.07;34.19;99910.84;6328801;28;20130;-72
2022/08/31 11:17:32;;;;;;;0.15;0.15;;;;;;;28.97;33.73;99897.06;6311503;28;20056;-72
2022/08/31 11:20:54;;;;;;;0.32;0.25;;;;;;;29.64;34.47;99907.28;6295890;28;20409;-73
2022/08/31 11:24:29;;;;;;;0.52;0.32;;;;;;;29.61;33.59;99902.34;6311291;28;20052;-73
2022/08/31 11:27:49;;;;;;;0.35;0.32;;;;;;;29.70;33.71;99893.81;6294340;28;20412;-72
2022/08/31 11:30:50;;;;;;;0.73;0.60;;;;;;;29.51;34.16;99905.56;6295748;28;20528;-72
2022/08/31 11:33:59;;;;;;;0.57;0.47;;;;;;;29.29;33.89;99895.19;6295515;28;20074;-72
2022/08/31 11:37:07;;;;;;;0.15;0.15;;;;;;;29.67;33.83;99886.16;6311209;28;20045;-72
2022/08/31 11:40:13;;;;;;;0.20;0.17;;;;;;;29.76;32.26;99884.03;6294298;28;20037;-72
2022/08/31 11:43:13;;;;;;;0.13;0.13;;;;;;;29.98;32.85;99887.09;6295668;28;20041;-72
2022/08/31 11:46:27;;;;;;;1.00;0.30;;;;;;;29.78;33.32;99884.63;6294208;28;20481;-72
2022/08/31 11:49:49;;;;;;;0.08;0.08;;;;;;;30.02;32.25;99887.44;6294071;28;20049;-72
2022/08/31 11:52:55;;;;;;;0.30;0.30;;;;;;;29.66;32.51;99887.19;6295642;28;20063;-72
2022/08/31 11:56:05;;;;;;;0.40;0.40;;;;;;;29.87;32.49;99885.97;6294142;28;20063;-72
2022/08/31 11:59:25;;;;;;;0.45;0.30;;;;;;;29.54;32.40;99880.91;6294008;28;20063;-73
2022/08/31 12:02:25;;;;;;;1.23;0.35;;;;;;;29.40;33.70;99879.41;6294320;28;20064;-73
2022/08/31 12:05:55;;;;;;;0.30;0.30;;;;;;;29.54;33.44;99873.66;6327680;28;20447;-72
2022/08/31 12:09:32;;;;;;;0.73;0.35;;;;;;;29.80;32.81;99881.72;6293985;28;20416;-73
2022/08/31 12:12:54;;;;;;;0.32;0.28;;;;;;;29.56;34.18;99870.75;6293986;28;20041;-72
2022/08/31 12:16:13;;;;;;;0.28;0.20;;;;;;;29.43;32.91;99863.66;6277126;28;20470;-73
2022/08/31 12:26:29;;;;;;;0.10;0.10;;;;;;;28.96;34.82;99863.22;6294901;28;20119;-72
2022/08/31 12:29:36;;;;;;;0.55;0.32;;;;;;;29.27;35.54;99856.97;6294877;28;20086;-72
2022/08/31 12:32:42;;;;;;;0.63;0.40;;;;;;;29.27;34.36;99850.78;6294928;28;20037;-72
2022/08/31 12:35:45;;;;;;;0.25;0.22;;;;;;;29.18;33.41;99847.56;6294688;28;20530;-72
2022/08/31 12:39:02;;;;;;;0.13;0.13;;;;;;;29.12;33.57;99846.59;6293415;28;20049;-73
2022/08/31 12:42:04;;;;;;;0.57;0.32;;;;;;;28.90;34.50;99832.69;6293750;28;20044;-72
2022/08/31 12:45:06;;;;;;;0.20;0.20;;;;;;;29.08;33.88;99837.28;6294660;28;20045;-72
2022/08/31 12:48:13;;;;;;;0.10;0.10;;;;;;;28.62;34.36;99830.44;6294683;28;20048;-72
2022/08/31 12:51:52;;;;;;;0.40;0.40;;;;;;;28.71;35.92;99837.16;6293560;28;20045;-73
2022/08/31 12:55:01;;;;;;;0.35;0.35;;;;;;;28.83;34.41;99829.25;6303952;28;20447;-73
2022/08/31 12:58:24;;;;;;;0.57;0.47;;;;;;;28.76;34.85;99841.88;6318617;28;20048;-73
2022/08/31 13:01:26;;;;;;;0.50;0.32;;;;;;;28.81;34.35;99836.69;6319920;28;20054;-72
2022/08/31 13:04:27;;;;;;;;;;;;;;;28.74;35.30;99830.53;6320082;28;20093;-72
2022/08/31 13:07:33;;;;;;;0.52;0.30;;;;;;;28.62;34.86;99832.28;6319913;28;19920;-73
2022/08/31 13:10:36;;;;;;;1.15;0.47;;;;;;;28.69;35.76;99822.34;6319507;28;20087;-73
2022/08/31 13:13:37;;;;;;;0.22;0.22;;;;;;;28.59;34.73;99830.03;6321067;28;20484;-72
2022/08/31 13:16:59;;;;;;;0.25;0.25;;;;;;;28.85;34.53;99819.09;6322838;28;20058;-73
2022/08/31 13:20:00;;;;;;;0.28;0.28;;;;;;;28.54;34.71;99828.00;6324294;28;20043;-73
2022/08/31 13:23:01;;;;;;;0.50;0.30;;;;;;;28.30;35.78;99826.88;6322630;28;20051;-72
2022/08/31 13:26:17;;;;;;;0.60;0.20;;;;;;;28.25;35.06;99818.66;6322695;28;20507;-73
2022/08/31 13:29:22;;;;;;;0.30;0.25;;;;;;;28.31;34.69;99829.38;6323685;28;20131;-73
2022/08/31 13:32:23;;;;;;;0.65;0.50;;;;;;;28.32;35.91;99840.91;6322536;28;20050;-72
2022/08/31 13:35:32;;;;;;;;;;;;;;;28.30;35.94;99827.69;6323923;28;20056;-72
2022/08/31 13:38:43;;;;;;;0.22;0.13;;;;;;;28.28;36.43;99831.66;6323678;28;19920;-72
2022/08/31 13:42:04;;;;;;;0.20;0.17;;;;;;;28.06;35.27;99831.13;6322241;28;20234;-73
2022/08/31 13:45:17;;;;;;;0.10;0.10;;;;;;;28.00;36.35;99835.47;6323403;28;20340;-73
2022/08/31 13:48:30;;;;;;;0.22;0.22;;;;;;;27.63;35.70;99831.66;6323471;28;20044;-73
2022/08/31 13:51:37;;;;;;;0.20;0.20;;;;;;;27.88;35.70;99826.44;6305181;28;20085;-72
2022/08/31 13:54:38;;;;;;;0.43;0.40;;;;;;;27.77;35.31;99824.41;6322024;28;20086;-72
2022/08/31 13:57:40;;;;;;;0.20;0.20;;;;;;;27.73;37.17;99834.72;6323279;28;20119;-73
2022/08/31 14:00:42;;;;;;;0.10;0.10;;;;;;;27.87;35.33;99835.53;6321873;28;20051;-73
2022/08/31 14:03:58;;;;;;;0.65;0.55;;;;;;;27.86;36.01;99836.53;6321835;28;20048;-72
2022/08/31 14:07:02;;;;;;;0.40;0.40;;;;;;;27.64;36.10;99830.66;6322963;28;20046;-72
2022/08/31 14:10:16;;;;;;;0.10;0.10;;;;;;;27.65;36.77;99837.63;6321666;28;20504;-73
2022/08/31 14:13:19;;;;;;;0.30;0.30;;;;;;;27.47;35.39;99831.09;6321488;28;20082;-73
2022/08/31 14:16:33;;;;;;;0.17;0.17;;;;;;;27.42;37.22;99825.53;6321504;28;20040;-72
2022/08/31 14:19:39;;;;;;;0.32;0.20;;;;;;;27.32;36.58;99834.03;6321448;28;20032;-72
2022/08/31 14:22:43;;;;;;;0.70;0.50;;;;;;;27.31;36.00;99842.25;6322404;28;20039;-73
2022/08/31 14:25:44;;;;;;;0.20;0.20;;;;;;;27.31;36.15;99842.25;6320105;28;20078;-72
2022/08/31 14:28:48;;;;;;;0.43;0.30;;;;;;;27.17;35.59;99852.13;6322439;28;20071;-72
2022/08/31 14:31:52;;;;;;;0.25;0.20;;;;;;;27.21;36.11;99834.59;6321014;28;20051;-72
2022/08/31 14:34:53;;;;;;;0.15;0.15;;;;;;;27.22;37.05;99846.97;6322096;28;20083;-72
2022/08/31 14:37:54;;;;;;;0.10;0.10;;;;;;;27.36;35.32;99853.16;6322127;28;20506;-71
2022/08/31 14:40:55;;;;;;;0.20;0.20;;;;;;;27.31;36.28;99843.06;6320956;28;20519;-72
2022/08/31 14:44:05;;;;;;;0.10;0.10;;;;;;;27.06;35.46;99860.78;6320678;28;20105;-72
2022/08/31 14:47:08;;;;;;;0.57;0.10;;;;;;;27.10;35.54;99857.47;6303908;28;20067;-73
2022/08/31 14:50:15;;;;;;;1.08;0.35;;;;;;;26.82;35.90;99851.50;6303699;28;20134;-73
2022/08/31 14:53:17;;;;;;;0.65;0.40;;;;;;;26.77;35.77;99851.28;6321805;28;20051;-72